SBCGSBCY

Guest
Details From SBCG - Campo Grande
To SBCY - Marechal Rondon
Flight Number -
Tags Decoded
Created
Modified
Stats Distance 302 nm / 559 km
Max Altitude 0 ft / 0 m
Waypoints 2
Social Downloads 5
Likes 0
Share VATSIM

Download

Looking for another format? Having issues loading an existing format? Contact us
Advertisement - Login to hide

Notes

Decoded

Route

SBCG SBCY

ID Type Via Altitude Latitude Longitude Leg Dist Tot Dist Heading (true) Name
O SBCG APT - 0 ft / 0 m -20.47754˚ -54.68069˚ - 0 nm - -
O SBCY APT - 0 ft / 0 m -15.64372˚ -56.12163˚ 301 nm 301 nm 344° / 344° -

Altitude Profile

Advertisement - Login to hide

Weather


0- 5 10 15 20 25 30 35+ Temperature / ° C

Clouds and Precipitation
Forecast for 2017-12-18 18:00 UTC. Updated 2 hours ago

Ground ~20,000 ft ~40,000 ft Winds

SBCG

Details ICAO SBCG (CGR)
Name Campo Grande
Region Brazil
Timezone America/Campo_Grande (UTC-3.0)
Stats Elevation 1,833 ft / 559 m (AMSL)
Location -20.468666° -54.672500°
Runways 1
Magnetic Variation 17.533° W

METAR

SBCG 181900Z VRB02KT 9999 VCTS VCSH SCT035 FEW040CB SCT100 29/20 Q1013

Decode

TAF

TAF SBCG 181445Z 1818/1918 33006KT 9999 SCT030 FEW035TCU TN21/1908Z TX31/1917Z PROB40 TEMPO 1818/1822 7000 TSRA BKN025 FEW040CB PROB40 TEMPO 1915/1918 7000 TSRA BKN025 FEW040CB RMK PDV

Decode

Departure Runways

ID Width Length Bearing (true) Bearing (mag) Surface Threshold Offset Overrun Length
06 141 ft / 43 m 8,563 ft / 2,610 m 40.84° 58.37° Asphalt 0 ft / 0 m 192 ft / 59 m
24 141 ft / 43 m 8,563 ft / 2,610 m 220.83° 238.36° Asphalt 0 ft / 0 m 190 ft / 58 m

SBCY

Details ICAO SBCY (CGB)
Name Marechal Rondon
Region Brazil
Timezone America/Cuiaba (UTC-3.0)
Stats Elevation 609 ft / 186 m (AMSL)
Location -15.652930° -56.116720°
Runways 1
Magnetic Variation 17.400° W

METAR

SBCY 181900Z 34006KT 9999 BKN020 33/21 Q1010

Decode

TAF

TAF SBCY 181600Z 1818/1918 34005KT 9999 SCT030 FEW035TCU TN23/1907Z TX32/1918Z BECMG 1822/1824 06005KT CAVOK BECMG 1906/1908 30005KT BECMG 1910/1912 33008KT BECMG 1915/1917 36008KT SCT020 RMK PCQ

Decode

Destination Runways

ID Width Length Bearing (true) Bearing (mag) Surface Threshold Offset Overrun Length
17 148 ft / 45 m 7,558 ft / 2,304 m 152.83° 170.23° Asphalt 0 ft / 0 m 190 ft / 58 m
35 148 ft / 45 m 7,558 ft / 2,304 m 332.82° 350.22° Asphalt 0 ft / 0 m 190 ft / 58 m

Approach Navaids

Runway Type Ident Frequency Range Bearing (true) Bearing (mag) Slope Elevation
35 Localiser ICB 109.30 MHz 18 nm / 33 km 333.66° 351.06° - 609 ft / 186 m (AMSL)

Popular Alternatives